Koppie Airport

Jump to: basic info | weather | runways | comments

Related pages: nearby airports | nearby navaids | notams | map

Basic information (top)

Codes: 7IS5
Location: lon 42.121399, lat -88.378098, elev 890 ft / 271 m msl
Status: small_airport

Weather (top)

Current conditions for Dupage Airport 14nm (26km) SSE (rec'd 2014/11/28 22:52Z):

KDPA 282252Z 16011KT 8SM OVC019 M01/M03 A2997 RMK AO2 SLP157 T10061033

Airport forecast for Dupage Airport 14nm (26km) SSE (rec'd 2014/11/28 18:42Z):

TAF KDPA 281740Z 2818/2918 16012G19KT P6SM SCT120 BKN200 
     FM290000 19011KT P6SM SCT015 BKN090 
     FM290600 19007KT 6SM BR BKN200 
     FM291400 20012G20KT P6SM BKN200

Runways (top)

N/S: 2,300 x 100 ft (701 x 30 m) — grass — not lighted

Latest comments (top)

No comments yet for Koppie Airport

More... (top)

See also NOTAMs and nearby airports and navaids, or visit the Koppie Airport page at the main OurAirports website..